Time;durP1;ratioP1;P1;durP2;ratioP2;P2;SDS_P1;SDS_P2;PMS_P1;PMS_P2;Temp;Humidity;BMP_temperature;BMP_pressure;BME280_temperature;BME280_humidity;BME280_pressure;Samples;Min_cycle;Max_cycle;Signal;HPM_P1;HPM_P2
2020/12/06 00:00:04;;;;;;;92.30;41.73;;;4.10;99.90;;;;;;6178673;28;20812;-60
2020/12/06 00:03:07;;;;;;;102.20;42.33;;;4.00;99.90;;;;;;6178880;28;20982;-61
2020/12/06 00:06:10;;;;;;;90.47;44.40;;;4.10;99.90;;;;;;6168075;28;20477;-60
2020/12/06 00:09:12;;;;;;;93.83;41.37;;;4.10;99.90;;;;;;6178648;28;20485;-61
2020/12/06 00:12:15;;;;;;;91.97;44.20;;;4.00;99.90;;;;;;6179098;28;20470;-61
2020/12/06 00:15:17;;;;;;;82.23;42.00;;;4.00;99.90;;;;;;6176951;28;20503;-60
2020/12/06 00:18:22;;;;;;;81.47;41.60;;;4.00;99.90;;;;;;6176889;28;20474;-60
2020/12/06 00:21:25;;;;;;;75.50;37.03;;;4.10;99.90;;;;;;6178542;28;20576;-59
2020/12/06 00:24:27;;;;;;;87.43;40.10;;;4.20;99.90;;;;;;6178666;28;20514;-59
2020/12/06 00:27:33;;;;;;;79.50;41.23;;;4.20;99.90;;;;;;6177546;28;20484;-60
2020/12/06 00:30:37;;;;;;;84.90;41.27;;;4.30;99.90;;;;;;6177617;28;20477;-60
2020/12/06 00:33:40;;;;;;;89.70;41.93;;;4.30;99.90;;;;;;6176403;28;20557;-60
2020/12/06 00:36:43;;;;;;;85.73;39.73;;;4.40;99.90;;;;;;6178247;28;20496;-61
2020/12/06 00:39:45;;;;;;;79.90;39.97;;;4.40;99.90;;;;;;6175867;28;20481;-60
2020/12/06 00:42:47;;;;;;;95.33;42.37;;;4.40;99.90;;;;;;6177999;28;20474;-62
2020/12/06 00:45:50;;;;;;;79.60;39.07;;;4.20;99.90;;;;;;6177956;28;20812;-61
2020/12/06 00:48:53;;;;;;;84.67;43.40;;;4.20;99.90;;;;;;6178749;28;20481;-62
2020/12/06 00:51:58;;;;;;;92.40;43.87;;;4.20;99.90;;;;;;6179106;28;20489;-61
2020/12/06 00:55:01;;;;;;;70.77;39.77;;;4.20;99.90;;;;;;6178031;28;20485;-57
2020/12/06 00:58:04;;;;;;;90.87;40.17;;;4.10;99.90;;;;;;6178168;28;20825;-58
2020/12/06 01:01:07;;;;;;;93.00;43.77;;;4.20;99.90;;;;;;6174241;28;20475;-58
2020/12/06 01:04:10;;;;;;;91.73;41.20;;;4.20;99.90;;;;;;6153892;29;20509;-62
2020/12/06 01:07:15;;;;;;;80.57;40.80;;;4.20;99.90;;;;;;6153677;29;20485;-62
2020/12/06 01:10:19;;;;;;;78.83;39.97;;;4.30;99.90;;;;;;6176699;28;20525;-64
2020/12/06 01:13:22;;;;;;;91.93;42.53;;;4.30;99.90;;;;;;6176897;28;20989;-64
2020/12/06 01:16:27;;;;;;;85.13;40.07;;;4.40;99.90;;;;;;6176895;28;20929;-66
2020/12/06 01:19:31;;;;;;;75.87;41.80;;;4.40;99.90;;;;;;6176014;28;20815;-62
2020/12/06 01:22:34;;;;;;;89.93;40.77;;;4.50;99.90;;;;;;6177836;28;20524;-67
2020/12/06 01:25:37;;;;;;;85.27;41.10;;;4.50;99.90;;;;;;6177038;28;20470;-66
2020/12/06 01:28:39;;;;;;;82.63;40.93;;;4.40;99.90;;;;;;6177542;28;20478;-62
2020/12/06 01:31:46;;;;;;;85.37;41.70;;;4.40;99.90;;;;;;6177084;28;20482;-60
2020/12/06 01:34:49;;;;;;;88.57;43.90;;;4.40;99.90;;;;;;6167318;28;20510;-61
2020/12/06 01:37:52;;;;;;;76.10;42.30;;;4.50;99.90;;;;;;6151518;29;20478;-61
2020/12/06 01:40:54;;;;;;;92.67;45.00;;;4.40;99.90;;;;;;6150958;29;20602;-60
2020/12/06 01:43:58;;;;;;;88.53;41.17;;;4.40;99.90;;;;;;6151231;29;20781;-61
2020/12/06 01:47:02;;;;;;;81.57;39.70;;;4.40;99.90;;;;;;6151245;28;20545;-62
2020/12/06 01:50:05;;;;;;;91.03;41.57;;;4.30;99.90;;;;;;6151692;29;20468;-62
2020/12/06 01:53:09;;;;;;;71.97;38.43;;;4.30;99.90;;;;;;6153300;28;20535;-61
2020/12/06 01:56:11;;;;;;;87.40;41.37;;;4.30;99.90;;;;;;6153077;29;20489;-61
2020/12/06 01:59:13;;;;;;;98.17;42.03;;;4.20;99.90;;;;;;6153194;29;20915;-62
2020/12/06 02:02:16;;;;;;;79.90;41.53;;;4.20;99.90;;;;;;6153138;29;20467;-62
2020/12/06 02:05:18;;;;;;;80.13;40.40;;;4.20;99.90;;;;;;6152872;29;20463;-61
2020/12/06 02:08:21;;;;;;;81.57;40.77;;;4.10;99.90;;;;;;6152899;29;20919;-61
2020/12/06 02:11:31;;;;;;;82.70;41.40;;;4.10;99.90;;;;;;6153510;29;20485;-61
2020/12/06 02:14:33;;;;;;;78.17;37.87;;;4.10;99.90;;;;;;6139525;29;20471;-61
2020/12/06 02:17:35;;;;;;;80.67;35.50;;;4.10;99.90;;;;;;6153124;28;20497;-61
2020/12/06 02:20:38;;;;;;;66.60;38.97;;;4.10;99.90;;;;;;6152563;29;20502;-60
2020/12/06 02:23:40;;;;;;;84.27;39.10;;;4.00;99.90;;;;;;6155863;28;20478;-60
2020/12/06 02:26:44;;;;;;;70.53;38.80;;;4.00;99.90;;;;;;6157508;29;20550;-62
2020/12/06 02:29:46;;;;;;;78.20;41.07;;;4.00;99.90;;;;;;6157773;29;20523;-59
2020/12/06 02:32:49;;;;;;;83.67;38.87;;;3.90;99.90;;;;;;6157357;29;20799;-61
2020/12/06 02:35:52;;;;;;;88.73;39.23;;;3.90;99.90;;;;;;6157589;29;20482;-61
2020/12/06 02:38:54;;;;;;;79.10;39.50;;;3.90;99.90;;;;;;6157642;29;20475;-61
2020/12/06 02:41:57;;;;;;;92.63;41.37;;;3.80;99.90;;;;;;6157328;29;20493;-61
2020/12/06 02:44:59;;;;;;;78.40;41.33;;;3.80;99.90;;;;;;6157331;29;20541;-61
2020/12/06 02:48:02;;;;;;;81.80;38.30;;;3.80;99.90;;;;;;6157272;29;20544;-61
2020/12/06 02:51:05;;;;;;;78.70;42.57;;;3.70;99.90;;;;;;6157120;29;20900;-60
2020/12/06 02:54:08;;;;;;;80.63;37.67;;;3.70;99.90;;;;;;6157365;29;20477;-61
2020/12/06 02:57:10;;;;;;;76.30;39.70;;;3.70;99.90;;;;;;6157266;29;20482;-62
2020/12/06 03:00:12;;;;;;;65.60;38.90;;;3.70;99.90;;;;;;6157026;29;20561;-61
2020/12/06 03:03:15;;;;;;;67.70;36.20;;;3.80;99.90;;;;;;6157079;29;20474;-61
2020/12/06 03:06:18;;;;;;;81.23;39.17;;;3.80;99.90;;;;;;6156902;29;20470;-60
2020/12/06 03:09:20;;;;;;;76.17;38.50;;;3.80;99.90;;;;;;6156595;29;21023;-61
2020/12/06 03:12:22;;;;;;;75.17;36.87;;;3.80;99.90;;;;;;6156681;29;20483;-63
2020/12/06 03:15:24;;;;;;;72.10;35.13;;;3.80;99.90;;;;;;6156573;29;20474;-62
2020/12/06 03:18:27;;;;;;;72.37;37.33;;;3.90;99.90;;;;;;6156694;29;20493;-62
2020/12/06 03:21:30;;;;;;;70.97;37.13;;;3.90;99.90;;;;;;6156720;29;20475;-62
2020/12/06 03:24:32;;;;;;;75.03;37.10;;;3.90;99.90;;;;;;6156823;29;20549;-61
2020/12/06 03:27:34;;;;;;;67.80;36.70;;;3.90;99.90;;;;;;6156577;29;20478;-62
2020/12/06 03:30:36;;;;;;;65.83;36.77;;;3.80;99.90;;;;;;6156332;29;20478;-62
2020/12/06 03:33:39;;;;;;;71.40;37.60;;;3.80;99.90;;;;;;6155938;28;20474;-65
2020/12/06 03:36:42;;;;;;;74.33;39.20;;;3.80;99.90;;;;;;6155782;29;20482;-65
2020/12/06 03:39:44;;;;;;;69.93;37.33;;;3.80;99.90;;;;;;6156033;29;20482;-64
2020/12/06 03:42:49;;;;;;;68.00;35.73;;;3.80;99.90;;;;;;6156226;29;20641;-64
2020/12/06 03:45:51;;;;;;;69.63;37.17;;;3.70;99.90;;;;;;6155968;29;20816;-63
2020/12/06 03:48:56;;;;;;;62.67;35.67;;;3.80;99.90;;;;;;6155849;29;20590;-63
2020/12/06 03:51:59;;;;;;;65.33;34.93;;;3.80;99.90;;;;;;6155856;29;20483;-63
2020/12/06 03:55:01;;;;;;;64.40;35.63;;;3.80;99.90;;;;;;6155614;29;20817;-62
2020/12/06 03:58:07;;;;;;;59.70;36.03;;;3.80;99.90;;;;;;6155653;29;20687;-63
2020/12/06 04:01:09;;;;;;;64.90;34.07;;;3.70;99.90;;;;;;6155448;29;20486;-63
2020/12/06 04:04:13;;;;;;;60.00;32.60;;;3.70;99.90;;;;;;6155992;29;20546;-63
2020/12/06 04:07:16;;;;;;;64.07;34.50;;;3.80;99.90;;;;;;6155414;29;20475;-62
2020/12/06 04:10:19;;;;;;;59.67;34.00;;;3.80;99.90;;;;;;6155161;29;20820;-62
2020/12/06 04:13:21;;;;;;;63.63;34.90;;;3.80;99.90;;;;;;6155447;29;20467;-62
2020/12/06 04:16:23;;;;;;;61.03;36.43;;;3.70;99.90;;;;;;6155453;29;20498;-62
2020/12/06 04:19:26;;;;;;;68.77;35.27;;;3.60;99.90;;;;;;6155041;29;20494;-62
2020/12/06 04:22:29;;;;;;;64.70;34.20;;;3.60;99.90;;;;;;6150511;29;20482;-62
2020/12/06 04:25:31;;;;;;;65.27;33.30;;;3.60;99.90;;;;;;6155327;28;20467;-63
2020/12/06 04:28:33;;;;;;;60.67;35.97;;;3.60;99.90;;;;;;6155038;29;20478;-63
2020/12/06 04:31:35;;;;;;;61.60;35.03;;;3.50;99.90;;;;;;6154902;29;20479;-63
2020/12/06 04:34:38;;;;;;;70.77;36.90;;;3.60;99.90;;;;;;6154740;29;20552;-63
2020/12/06 04:37:41;;;;;;;60.63;32.20;;;3.50;99.90;;;;;;6154753;29;20474;-63
2020/12/06 04:40:43;;;;;;;59.83;33.13;;;3.60;99.90;;;;;;6154744;29;20490;-62
2020/12/06 04:43:46;;;;;;;64.20;34.83;;;3.60;99.90;;;;;;6154821;29;20474;-62
2020/12/06 04:46:49;;;;;;;54.90;32.40;;;3.60;99.90;;;;;;6153766;28;20963;-62
2020/12/06 04:49:59;;;;;;;54.83;34.07;;;3.70;99.90;;;;;;6154410;29;20485;-62
2020/12/06 04:53:05;;;;;;;67.63;35.97;;;3.80;99.90;;;;;;6154670;28;20471;-63
2020/12/06 04:56:11;;;;;;;60.10;33.60;;;3.90;99.90;;;;;;6154577;29;20467;-63
2020/12/06 04:59:16;;;;;;;57.43;31.93;;;3.90;99.90;;;;;;6154548;29;20436;-62
2020/12/06 05:02:20;;;;;;;53.33;33.30;;;3.90;99.90;;;;;;6154245;29;20467;-61
2020/12/06 05:05:22;;;;;;;59.03;33.13;;;3.90;99.90;;;;;;6154336;29;20454;-62
2020/12/06 05:08:26;;;;;;;50.17;31.10;;;3.90;99.90;;;;;;6153966;29;20983;-62
2020/12/06 05:11:29;;;;;;;60.30;32.60;;;3.90;99.90;;;;;;6154452;29;20471;-62
2020/12/06 05:14:31;;;;;;;55.93;34.70;;;4.00;99.90;;;;;;6153674;29;20482;-62
2020/12/06 05:17:33;;;;;;;50.13;31.60;;;4.10;99.90;;;;;;6154290;29;20478;-62
2020/12/06 05:20:36;;;;;;;48.57;32.03;;;4.10;99.90;;;;;;6153979;29;20466;-62
2020/12/06 05:23:41;;;;;;;55.43;34.50;;;4.10;99.90;;;;;;6149375;29;20483;-62
2020/12/06 05:26:44;;;;;;;51.87;30.50;;;4.20;99.90;;;;;;6153775;28;20475;-62
2020/12/06 05:29:48;;;;;;;52.20;32.90;;;4.10;99.90;;;;;;6153732;29;20493;-62
2020/12/06 05:32:50;;;;;;;46.00;31.10;;;4.00;99.90;;;;;;6153710;29;20471;-62
2020/12/06 05:35:58;;;;;;;53.50;33.27;;;4.00;99.90;;;;;;6153622;29;20483;-63
2020/12/06 05:39:02;;;;;;;54.73;33.20;;;4.00;99.90;;;;;;6153784;29;20558;-63
2020/12/06 05:42:04;;;;;;;53.57;32.60;;;4.10;99.90;;;;;;6153177;29;20483;-64
2020/12/06 05:45:07;;;;;;;52.87;30.80;;;4.10;99.90;;;;;;6153786;29;20466;-65
2020/12/06 05:48:09;;;;;;;56.47;31.57;;;4.10;99.90;;;;;;6153496;29;20471;-64
2020/12/06 05:51:13;;;;;;;51.93;31.43;;;4.10;99.90;;;;;;6153279;29;20475;-65
2020/12/06 05:54:16;;;;;;;51.23;33.20;;;4.10;99.90;;;;;;6153474;29;20485;-64
2020/12/06 05:57:19;;;;;;;47.37;32.17;;;4.00;99.90;;;;;;6152637;28;20825;-65
2020/12/06 06:00:21;;;;;;;48.60;29.90;;;4.10;99.90;;;;;;6153278;29;20474;-64
2020/12/06 06:03:28;;;;;;;52.87;33.03;;;4.10;99.90;;;;;;6152835;29;20485;-64
2020/12/06 06:06:38;;;;;;;48.73;30.27;;;4.10;99.90;;;;;;6153303;29;20475;-60
2020/12/06 06:09:43;;;;;;;57.30;31.30;;;4.20;99.90;;;;;;6153273;29;20483;-61
2020/12/06 06:12:50;;;;;;;48.93;33.33;;;4.10;99.90;;;;;;6153117;29;20471;-64
2020/12/06 06:15:53;;;;;;;53.13;33.83;;;4.10;99.90;;;;;;6152923;29;20490;-62
2020/12/06 06:18:56;;;;;;;49.53;33.97;;;4.00;99.90;;;;;;6152878;29;20478;-63
2020/12/06 06:22:00;;;;;;;46.07;31.37;;;4.00;99.90;;;;;;6153049;29;20818;-64
2020/12/06 06:25:05;;;;;;;54.73;33.27;;;3.90;99.90;;;;;;6153150;29;20771;-64
2020/12/06 06:28:10;;;;;;;54.73;31.90;;;4.00;99.90;;;;;;6153125;29;20479;-64
2020/12/06 06:31:14;;;;;;;49.37;31.00;;;4.00;99.90;;;;;;6152844;29;20475;-64
2020/12/06 06:34:17;;;;;;;46.33;30.67;;;4.10;99.90;;;;;;6152655;29;20577;-64
2020/12/06 06:37:19;;;;;;;48.67;31.40;;;4.10;99.90;;;;;;6153046;29;20800;-64
2020/12/06 06:40:27;;;;;;;48.37;30.17;;;4.10;99.90;;;;;;6152475;29;20855;-64
2020/12/06 06:43:32;;;;;;;51.53;32.37;;;4.20;99.90;;;;;;6152865;29;20470;-65
2020/12/06 06:46:36;;;;;;;42.27;29.43;;;4.30;99.90;;;;;;6152596;29;20471;-66
2020/12/06 06:49:52;;;;;;;45.27;28.90;;;4.30;99.90;;;;;;6152867;29;20474;-64
2020/12/06 06:52:56;;;;;;;40.90;29.63;;;4.30;99.90;;;;;;6152543;29;20486;-61
2020/12/06 06:56:01;;;;;;;44.03;29.47;;;4.30;99.90;;;;;;6152362;29;20483;-62
2020/12/06 06:59:04;;;;;;;51.07;29.90;;;4.30;99.90;;;;;;6152502;28;20933;-62
2020/12/06 07:02:07;;;;;;;37.07;27.97;;;4.30;99.90;;;;;;6152603;29;20463;-62
2020/12/06 07:05:21;;;;;;;38.17;27.10;;;4.30;99.90;;;;;;6152160;29;20911;-62
2020/12/06 07:08:24;;;;;;;43.50;29.10;;;4.40;99.90;;;;;;6152665;28;20469;-61
2020/12/06 07:11:29;;;;;;;40.20;29.77;;;4.40;99.90;;;;;;6156001;29;20489;-62
2020/12/06 07:14:31;;;;;;;41.37;29.07;;;4.50;99.90;;;;;;6156895;29;20486;-62
2020/12/06 07:17:33;;;;;;;41.53;29.77;;;4.40;99.90;;;;;;6156228;29;20790;-62
2020/12/06 07:20:35;;;;;;;42.37;29.33;;;4.50;99.90;;;;;;6156282;29;20970;-62
2020/12/06 07:23:38;;;;;;;40.30;26.90;;;4.60;99.90;;;;;;6156845;29;20482;-62
2020/12/06 07:26:42;;;;;;;36.93;28.93;;;4.60;99.90;;;;;;6156315;29;20489;-62
2020/12/06 07:29:44;;;;;;;38.60;29.93;;;4.60;99.90;;;;;;6156623;29;20474;-62
2020/12/06 07:32:46;;;;;;;41.97;28.47;;;4.70;99.90;;;;;;6147951;29;20478;-61
2020/12/06 07:35:48;;;;;;;39.77;26.80;;;4.80;99.90;;;;;;6157032;28;20497;-61
2020/12/06 07:38:51;;;;;;;37.80;26.47;;;4.80;99.90;;;;;;6157434;29;20485;-61
2020/12/06 07:41:54;;;;;;;40.50;28.07;;;4.80;99.90;;;;;;6157242;29;20475;-61
2020/12/06 07:44:57;;;;;;;40.07;28.07;;;4.90;99.90;;;;;;6157614;28;20816;-61
2020/12/06 07:48:00;;;;;;;42.60;27.87;;;5.00;99.90;;;;;;6156712;29;20493;-61
2020/12/06 07:51:02;;;;;;;39.87;26.73;;;4.90;99.90;;;;;;6156231;28;20822;-62
2020/12/06 07:54:04;;;;;;;39.73;27.00;;;4.90;99.90;;;;;;6156277;29;20481;-61
2020/12/06 07:57:10;;;;;;;52.43;38.97;;;4.90;99.90;;;;;;6156108;29;20485;-62
2020/12/06 08:00:14;;;;;;;36.77;28.30;;;4.90;99.90;;;;;;6155833;29;20474;-62
2020/12/06 08:03:17;;;;;;;41.30;27.70;;;4.90;99.90;;;;;;6155629;29;20501;-61
2020/12/06 08:06:21;;;;;;;39.83;28.20;;;4.90;99.90;;;;;;6155471;29;20570;-61
2020/12/06 08:09:28;;;;;;;39.10;28.13;;;5.00;99.90;;;;;;6168689;28;20484;-62
2020/12/06 08:12:34;;;;;;;41.37;28.17;;;5.00;99.90;;;;;;6179556;28;20969;-61
2020/12/06 08:15:36;;;;;;;40.67;29.17;;;4.80;99.90;;;;;;6179225;28;20481;-61
2020/12/06 08:18:38;;;;;;;37.67;26.70;;;4.80;99.90;;;;;;6179233;28;21044;-61
2020/12/06 08:21:44;;;;;;;41.00;27.73;;;4.90;99.90;;;;;;6179085;28;21085;-61
2020/12/06 08:24:46;;;;;;;36.63;27.17;;;4.80;99.90;;;;;;6184380;28;20470;-62
2020/12/06 08:27:51;;;;;;;38.90;27.90;;;4.70;99.90;;;;;;6179539;28;20480;-60
2020/12/06 08:30:53;;;;;;;38.50;27.80;;;4.80;99.90;;;;;;6179158;28;20478;-61
2020/12/06 08:34:08;;;;;;;39.13;27.80;;;4.90;99.90;;;;;;6177324;28;20478;-61
2020/12/06 08:37:17;;;;;;;42.23;27.47;;;5.10;99.90;;;;;;6173438;28;20478;-61
2020/12/06 08:40:20;;;;;;;44.57;31.80;;;5.20;99.90;;;;;;6177889;28;20497;-65
2020/12/06 08:43:23;;;;;;;43.50;31.10;;;5.40;99.90;;;;;;6178006;28;20481;-65
2020/12/06 08:46:25;;;;;;;42.87;29.67;;;5.50;99.90;;;;;;6178111;28;20471;-65
2020/12/06 08:49:28;;;;;;;38.13;28.70;;;5.60;99.90;;;;;;6178745;28;20474;-65
2020/12/06 08:52:30;;;;;;;44.17;30.00;;;5.70;99.90;;;;;;6178293;28;20493;-65
2020/12/06 08:55:39;;;;;;;42.30;30.23;;;5.80;99.90;;;;;;6178194;28;21003;-65
2020/12/06 08:58:42;;;;;;;39.03;28.57;;;5.90;99.90;;;;;;6178381;28;20485;-64
2020/12/06 09:01:49;;;;;;;40.23;29.40;;;6.00;99.90;;;;;;6178091;28;20819;-64
2020/12/06 09:04:52;;;;;;;43.47;30.73;;;6.00;99.90;;;;;;6177938;28;20819;-63
2020/12/06 09:07:54;;;;;;;35.47;27.17;;;6.00;99.90;;;;;;6178292;28;20474;-64
2020/12/06 09:10:57;;;;;;;44.07;29.27;;;6.20;99.90;;;;;;6177998;28;20623;-64
2020/12/06 09:14:00;;;;;;;38.13;30.30;;;6.20;99.90;;;;;;6177965;28;20489;-64
2020/12/06 09:17:02;;;;;;;38.50;29.20;;;6.20;99.90;;;;;;6177732;28;20477;-63
2020/12/06 09:20:04;;;;;;;38.93;28.03;;;6.20;99.90;;;;;;6177725;28;20477;-63
2020/12/06 09:23:07;;;;;;;33.80;26.20;;;6.30;99.90;;;;;;6180011;28;20457;-63
2020/12/06 09:26:10;;;;;;;37.17;28.17;;;6.30;99.90;;;;;;6176684;28;20442;-65
2020/12/06 09:29:13;;;;;;;34.27;27.80;;;6.40;99.90;;;;;;6177806;28;20462;-65
2020/12/06 09:32:15;;;;;;;42.13;30.80;;;6.40;99.90;;;;;;6177237;28;20473;-63
2020/12/06 09:35:18;;;;;;;38.40;29.47;;;6.50;99.90;;;;;;6173400;28;20489;-65
2020/12/06 09:38:20;;;;;;;42.23;30.70;;;6.60;99.90;;;;;;6177216;28;20449;-62
2020/12/06 09:41:23;;;;;;;37.30;28.60;;;6.60;99.90;;;;;;6172675;28;20492;-62
2020/12/06 09:44:29;;;;;;;40.10;28.77;;;6.60;99.90;;;;;;6177302;28;20466;-62
2020/12/06 09:47:31;;;;;;;38.97;29.63;;;6.70;99.90;;;;;;6177421;28;20540;-63
2020/12/06 09:50:34;;;;;;;41.10;28.93;;;6.70;99.90;;;;;;6176692;28;20466;-69
2020/12/06 09:53:38;;;;;;;39.50;27.50;;;6.70;99.90;;;;;;6177594;28;20509;-64
2020/12/06 09:56:41;;;;;;;36.63;29.70;;;6.70;99.90;;;;;;6176824;28;20485;-69
2020/12/06 09:59:44;;;;;;;42.00;31.13;;;6.70;99.90;;;;;;6177484;28;20482;-65
2020/12/06 10:02:46;;;;;;;49.80;35.13;;;6.70;99.90;;;;;;6177336;28;20525;-69
2020/12/06 10:05:49;;;;;;;41.87;31.93;;;6.80;99.90;;;;;;6184669;28;20477;-63
2020/12/06 10:08:51;;;;;;;41.73;29.57;;;6.70;99.90;;;;;;6194003;28;20565;-63
2020/12/06 10:11:54;;;;;;;49.13;32.97;;;6.80;99.90;;;;;;6176830;28;20980;-63
2020/12/06 10:14:57;;;;;;;59.77;44.97;;;6.80;99.90;;;;;;6176709;28;20535;-62
2020/12/06 10:18:02;;;;;;;54.63;41.30;;;6.90;99.90;;;;;;6176570;28;20569;-63
2020/12/06 10:21:06;;;;;;;43.20;32.50;;;6.90;99.90;;;;;;6176668;28;20474;-63
2020/12/06 10:24:08;;;;;;;46.37;32.07;;;6.90;99.90;;;;;;6176820;28;20493;-62
2020/12/06 10:27:10;;;;;;;45.83;32.87;;;6.90;99.90;;;;;;6176511;28;20981;-62
2020/12/06 10:30:13;;;;;;;45.70;32.77;;;6.90;99.90;;;;;;6176725;28;20481;-61
2020/12/06 10:33:15;;;;;;;42.43;30.80;;;6.90;99.90;;;;;;6176794;28;20473;-61
2020/12/06 10:36:18;;;;;;;45.37;30.47;;;6.90;99.90;;;;;;6162112;28;20482;-63
2020/12/06 10:39:21;;;;;;;47.97;32.20;;;6.80;99.90;;;;;;6152703;29;20486;-63
2020/12/06 10:42:23;;;;;;;53.07;36.30;;;6.80;99.90;;;;;;6152185;29;20479;-63
2020/12/06 10:45:26;;;;;;;44.97;34.07;;;6.60;99.90;;;;;;6151910;28;20782;-62
2020/12/06 10:48:28;;;;;;;48.73;34.77;;;6.60;99.90;;;;;;6156864;29;20996;-64
2020/12/06 10:51:31;;;;;;;47.93;36.37;;;6.60;99.90;;;;;;6157374;29;20483;-65
2020/12/06 10:54:34;;;;;;;46.47;34.73;;;6.60;99.90;;;;;;6157006;29;20462;-64
2020/12/06 10:57:37;;;;;;;43.63;33.00;;;6.70;99.90;;;;;;6157177;28;20489;-67
2020/12/06 11:00:43;;;;;;;46.33;34.90;;;6.70;99.90;;;;;;6156748;29;20470;-63
2020/12/06 11:03:45;;;;;;;50.00;32.77;;;6.80;99.90;;;;;;6157195;29;20471;-66
2020/12/06 11:06:50;;;;;;;49.33;35.53;;;6.90;99.90;;;;;;6156857;29;20475;-64
2020/12/06 11:09:52;;;;;;;45.10;35.17;;;6.90;99.90;;;;;;6166287;28;20482;-64
2020/12/06 11:12:55;;;;;;;58.27;43.60;;;7.00;99.90;;;;;;6180988;28;20519;-70
2020/12/06 11:15:58;;;;;;;50.77;35.37;;;7.00;99.90;;;;;;6180859;28;20526;-62
2020/12/06 11:19:01;;;;;;;44.43;35.27;;;7.00;99.90;;;;;;6180733;28;20478;-62
2020/12/06 11:22:03;;;;;;;45.10;34.90;;;7.10;99.90;;;;;;6181182;28;20478;-63
2020/12/06 11:25:06;;;;;;;42.73;34.10;;;7.10;99.90;;;;;;6180612;28;20476;-67
2020/12/06 11:28:08;;;;;;;43.70;32.57;;;7.10;99.90;;;;;;6180581;28;20476;-65
2020/12/06 11:31:14;;;;;;;46.80;31.37;;;7.10;99.90;;;;;;6179990;28;20785;-67
2020/12/06 11:34:17;;;;;;;40.83;29.63;;;7.10;99.90;;;;;;6180048;28;20849;-58
2020/12/06 11:37:19;;;;;;;39.40;28.70;;;7.10;99.90;;;;;;6163178;28;20490;-63
2020/12/06 11:40:21;;;;;;;38.33;28.40;;;7.10;99.90;;;;;;6155946;29;20498;-61
2020/12/06 11:43:24;;;;;;;33.20;26.67;;;7.20;99.90;;;;;;6155780;29;20481;-61
2020/12/06 11:46:27;;;;;;;34.43;26.33;;;7.30;99.90;;;;;;6155676;29;20474;-60
2020/12/06 11:49:29;;;;;;;34.10;25.53;;;7.30;99.90;;;;;;6150922;29;20487;-61
2020/12/06 11:52:32;;;;;;;37.40;29.27;;;7.30;99.90;;;;;;6155820;28;20478;-62
2020/12/06 11:55:34;;;;;;;42.93;30.80;;;7.40;99.90;;;;;;6155002;28;20484;-64
2020/12/06 11:58:37;;;;;;;48.97;34.87;;;7.40;99.90;;;;;;6155658;29;20638;-62
2020/12/06 12:01:40;;;;;;;43.70;35.00;;;7.30;99.90;;;;;;6180023;28;20476;-61
2020/12/06 12:04:43;;;;;;;48.40;38.33;;;7.20;99.90;;;;;;6203329;28;20484;-62
2020/12/06 12:07:45;;;;;;;51.40;38.90;;;7.10;99.90;;;;;;6203121;28;20820;-60
2020/12/06 12:10:47;;;;;;;66.07;50.27;;;7.10;99.90;;;;;;6190405;28;20541;-60
2020/12/06 12:13:50;;;;;;;61.03;47.60;;;7.00;99.90;;;;;;6182263;28;20479;-61
2020/12/06 12:16:53;;;;;;;49.97;42.53;;;7.10;99.90;;;;;;6203424;28;20481;-61
2020/12/06 12:19:56;;;;;;;52.20;41.00;;;7.10;99.90;;;;;;6185290;28;20541;-62
2020/12/06 12:22:58;;;;;;;59.17;41.10;;;7.10;99.90;;;;;;6179638;28;20479;-62
2020/12/06 12:26:00;;;;;;;56.57;41.90;;;7.10;99.90;;;;;;6178935;28;20484;-62
2020/12/06 12:29:05;;;;;;;53.97;41.53;;;7.00;99.90;;;;;;6178702;28;20859;-61
2020/12/06 12:32:08;;;;;;;47.97;39.73;;;7.00;99.90;;;;;;6178639;28;20801;-62
2020/12/06 12:35:11;;;;;;;53.83;36.67;;;7.00;99.90;;;;;;6179070;28;20461;-60
2020/12/06 12:38:13;;;;;;;49.87;38.93;;;7.00;99.90;;;;;;6154625;28;20491;-61
2020/12/06 12:41:15;;;;;;;53.23;40.20;;;7.00;99.90;;;;;;6153984;29;20832;-62
2020/12/06 12:44:17;;;;;;;57.87;41.50;;;6.90;99.90;;;;;;6154437;29;20454;-62
2020/12/06 12:47:20;;;;;;;53.77;38.50;;;6.90;99.90;;;;;;6154926;29;20443;-61
2020/12/06 12:50:23;;;;;;;47.67;38.50;;;7.00;99.90;;;;;;6154457;29;20475;-61
2020/12/06 12:53:25;;;;;;;50.13;36.67;;;7.00;99.90;;;;;;6154805;29;20481;-62
2020/12/06 12:56:28;;;;;;;50.00;36.57;;;7.00;99.90;;;;;;6154476;28;20478;-61
2020/12/06 12:59:30;;;;;;;50.63;38.40;;;7.00;99.90;;;;;;6154513;29;20474;-62
2020/12/06 13:02:34;;;;;;;49.20;36.83;;;7.00;99.90;;;;;;6154145;28;20478;-63
2020/12/06 13:05:37;;;;;;;44.77;37.07;;;7.00;99.90;;;;;;6193905;28;20956;-63
2020/12/06 13:08:39;;;;;;;50.47;37.77;;;7.10;99.90;;;;;;6195333;28;20491;-64
2020/12/06 13:11:42;;;;;;;44.13;34.70;;;7.10;99.90;;;;;;6201800;28;20483;-62
2020/12/06 13:14:47;;;;;;;50.97;37.10;;;7.10;99.90;;;;;;6198604;28;20476;-60
2020/12/06 13:17:50;;;;;;;43.97;33.50;;;7.10;99.90;;;;;;6201752;28;20488;-60
2020/12/06 13:20:53;;;;;;;41.70;29.07;;;7.10;99.90;;;;;;6202011;28;20492;-60
2020/12/06 13:23:55;;;;;;;37.60;29.20;;;7.10;99.90;;;;;;6201522;28;20826;-60
2020/12/06 13:26:58;;;;;;;40.27;30.07;;;7.10;99.90;;;;;;6201870;28;20477;-67
2020/12/06 13:30:00;;;;;;;39.00;30.00;;;7.10;99.90;;;;;;6201944;28;20496;-60
2020/12/06 13:33:03;;;;;;;41.37;30.67;;;7.10;99.90;;;;;;6201746;28;20555;-60
2020/12/06 13:36:06;;;;;;;38.03;31.20;;;7.10;99.90;;;;;;6185404;28;20479;-60
2020/12/06 13:39:09;;;;;;;45.87;35.00;;;7.10;99.90;;;;;;6150803;29;20482;-60
2020/12/06 13:42:11;;;;;;;44.63;35.00;;;7.10;99.90;;;;;;6150454;29;20478;-60
2020/12/06 13:45:14;;;;;;;45.70;34.27;;;7.10;99.90;;;;;;6150560;29;20471;-60
2020/12/06 13:48:17;;;;;;;48.00;35.37;;;7.10;99.90;;;;;;6150840;29;20482;-60
2020/12/06 13:51:21;;;;;;;44.10;34.77;;;7.10;99.90;;;;;;6152297;29;20482;-60
2020/12/06 13:54:23;;;;;;;46.20;36.20;;;7.10;99.90;;;;;;6153326;29;20954;-60
2020/12/06 13:57:26;;;;;;;45.43;37.17;;;7.20;99.90;;;;;;6144322;28;20489;-60
2020/12/06 14:00:31;;;;;;;50.23;39.23;;;7.10;99.90;;;;;;6152940;29;20485;-60
2020/12/06 14:03:35;;;;;;;53.87;41.00;;;7.10;99.90;;;;;;6152768;29;20486;-60
2020/12/06 14:06:38;;;;;;;51.67;40.13;;;7.10;99.90;;;;;;6152191;29;20473;-60
2020/12/06 14:09:40;;;;;;;59.40;45.10;;;7.10;99.90;;;;;;6153184;29;20485;-60
2020/12/06 14:12:42;;;;;;;57.23;41.43;;;7.10;99.90;;;;;;6152976;29;20489;-60
2020/12/06 14:15:45;;;;;;;55.50;45.83;;;7.00;99.90;;;;;;6152966;29;20471;-60
2020/12/06 14:18:49;;;;;;;58.13;44.93;;;7.00;99.90;;;;;;6155418;28;20485;-60
2020/12/06 14:21:53;;;;;;;62.80;45.50;;;7.00;99.90;;;;;;6160880;28;20479;-58
2020/12/06 14:24:56;;;;;;;53.37;40.77;;;7.00;99.90;;;;;;6160439;28;20507;-61
2020/12/06 14:27:58;;;;;;;75.13;51.40;;;7.00;99.90;;;;;;6160706;29;20474;-60
2020/12/06 14:31:00;;;;;;;59.40;45.47;;;7.00;99.90;;;;;;6160638;29;20493;-60
2020/12/06 14:34:03;;;;;;;63.57;48.20;;;7.00;99.90;;;;;;6160482;28;20474;-60
2020/12/06 14:37:06;;;;;;;57.17;44.90;;;7.00;99.90;;;;;;6160719;28;20479;-60
2020/12/06 14:40:08;;;;;;;60.43;48.37;;;7.00;99.90;;;;;;6160135;28;20497;-60
2020/12/06 14:43:11;;;;;;;56.87;45.83;;;7.00;99.90;;;;;;6160559;29;20486;-60
2020/12/06 14:46:13;;;;;;;63.53;47.40;;;7.00;99.90;;;;;;6160398;28;20485;-60
2020/12/06 14:49:16;;;;;;;58.70;46.70;;;7.00;99.90;;;;;;6160622;29;20470;-59
2020/12/06 14:52:19;;;;;;;62.60;47.50;;;7.00;99.90;;;;;;6160388;28;20490;-59
2020/12/06 14:55:21;;;;;;;67.30;51.07;;;6.80;99.90;;;;;;6160684;29;20486;-59
2020/12/06 14:58:23;;;;;;;62.50;48.90;;;6.80;99.90;;;;;;6160774;28;20474;-59
2020/12/06 15:01:26;;;;;;;61.23;45.97;;;6.80;99.90;;;;;;6155727;29;20592;-60
2020/12/06 15:04:29;;;;;;;66.17;46.00;;;6.80;99.90;;;;;;6159959;28;20482;-60
2020/12/06 15:07:32;;;;;;;61.00;48.10;;;6.80;99.90;;;;;;6160304;29;20618;-59
2020/12/06 15:10:34;;;;;;;61.63;50.30;;;6.90;99.90;;;;;;6160346;29;20993;-60
2020/12/06 15:13:37;;;;;;;59.77;48.40;;;6.90;99.90;;;;;;6160089;28;20471;-60
2020/12/06 15:16:40;;;;;;;59.30;45.37;;;6.90;99.90;;;;;;6159742;29;20482;-59
2020/12/06 15:19:43;;;;;;;57.63;43.60;;;6.90;99.90;;;;;;6159863;28;20502;-63
2020/12/06 15:22:46;;;;;;;61.67;46.70;;;7.00;99.90;;;;;;6159854;28;20579;-63
2020/12/06 15:25:48;;;;;;;63.13;46.07;;;6.90;99.90;;;;;;6159989;28;20474;-63
2020/12/06 15:28:53;;;;;;;68.47;51.30;;;6.90;99.90;;;;;;6159868;28;20470;-63
2020/12/06 15:31:55;;;;;;;61.23;51.20;;;6.90;99.90;;;;;;6155725;28;20493;-63
2020/12/06 15:34:58;;;;;;;72.80;52.30;;;6.90;99.90;;;;;;6155837;29;20822;-60
2020/12/06 15:38:00;;;;;;;64.83;50.23;;;6.90;99.90;;;;;;6156111;28;20493;-59